createdAt,value
2023-04-25T00:00:50.009Z,8.94
2023-04-25T00:03:20.920Z,9.01
2023-04-25T00:05:52.756Z,9.08
2023-04-25T00:08:23.957Z,9.04
2023-04-25T00:10:54.569Z,9.10
2023-04-25T00:13:26.444Z,9.03
2023-04-25T00:16:00.054Z,9.06
2023-04-25T00:18:30.796Z,9.19
2023-04-25T00:21:01.537Z,9.04
2023-04-25T00:23:32.218Z,9.07
2023-04-25T00:26:03.295Z,9.06
2023-04-25T00:28:33.853Z,9.10
2023-04-25T00:31:04.555Z,9.00
2023-04-25T00:33:35.721Z,9.06
2023-04-25T00:36:06.458Z,9.17
2023-04-25T00:38:39.255Z,9.02
2023-04-25T00:41:09.948Z,9.05
2023-04-25T00:43:41.604Z,9.04
2023-04-25T00:46:12.257Z,8.94
2023-04-25T00:48:43.193Z,8.94
2023-04-25T00:51:16.796Z,8.95
2023-04-25T00:53:49.684Z,9.00
2023-04-25T00:56:22.533Z,9.00
2023-04-25T00:58:56.979Z,9.14
2023-04-25T01:01:29.923Z,9.04
2023-04-25T01:04:02.827Z,9.11
2023-04-25T01:06:34.411Z,8.95
2023-04-25T01:09:06.367Z,8.88
2023-04-25T01:11:38.570Z,9.06
2023-04-25T01:14:08.963Z,8.92
2023-04-25T01:16:39.610Z,9.03
2023-04-25T01:19:15.115Z,8.85
2023-04-25T01:21:46.637Z,8.94
2023-04-25T01:24:17.710Z,8.87
2023-04-25T01:26:50.078Z,8.82
2023-04-25T01:29:24.915Z,8.78
2023-04-25T01:31:55.728Z,8.97
2023-04-25T01:34:27.611Z,8.78
2023-04-25T01:37:00.358Z,8.76
2023-04-25T01:39:31.335Z,8.91
2023-04-25T01:42:02.734Z,8.94
2023-04-25T01:44:33.521Z,8.82
2023-04-25T01:47:04.260Z,8.92
2023-04-25T01:49:35.351Z,8.89
2023-04-25T01:52:07.153Z,8.85
2023-04-25T01:54:38.607Z,8.88
2023-04-25T01:57:09.246Z,8.89
2023-04-25T01:59:40.022Z,8.89
2023-04-25T02:02:10.789Z,8.93
2023-04-25T02:04:41.514Z,8.93
2023-04-25T02:07:12.240Z,8.96
2023-04-25T02:09:43.014Z,8.98
2023-04-25T02:12:14.680Z,8.86
2023-04-25T02:14:45.405Z,8.82
2023-04-25T02:17:17.645Z,8.69
2023-04-25T02:19:48.168Z,8.78
2023-04-25T02:22:18.800Z,8.70
2023-04-25T02:24:49.386Z,8.56
2023-04-25T02:27:19.984Z,8.77
2023-04-25T02:29:51.188Z,8.84
2023-04-25T02:32:21.844Z,8.84
2023-04-25T02:34:53.421Z,8.74
2023-04-25T02:37:24.389Z,8.80
2023-04-25T02:39:55.047Z,8.79
2023-04-25T02:42:25.957Z,8.85
2023-04-25T02:44:57.788Z,8.74
2023-04-25T02:47:28.485Z,8.92
2023-04-25T02:49:59.297Z,8.94
2023-04-25T02:52:29.849Z,8.84
2023-04-25T02:55:00.856Z,8.93
2023-04-25T02:57:31.667Z,8.72
2023-04-25T03:00:02.217Z,8.82
2023-04-25T03:02:33.009Z,8.74
2023-04-25T03:05:04.479Z,8.69
2023-04-25T03:07:35.087Z,8.67
2023-04-25T03:10:07.067Z,8.67
2023-04-25T03:12:37.631Z,8.64
2023-04-25T03:15:08.711Z,8.66
2023-04-25T03:17:41.044Z,8.54
2023-04-25T03:20:13.113Z,8.54
2023-04-25T03:22:43.773Z,8.74
2023-04-25T03:25:15.806Z,8.70
2023-04-25T03:27:47.414Z,8.72
2023-04-25T03:30:18.230Z,8.57
2023-04-25T03:32:48.766Z,8.62
2023-04-25T03:35:19.435Z,8.73
2023-04-25T03:37:51.062Z,8.66
2023-04-25T03:40:23.035Z,8.69
2023-04-25T03:42:54.457Z,8.80
2023-04-25T03:45:25.482Z,8.68
2023-04-25T03:47:56.332Z,8.75
2023-04-25T03:50:27.831Z,8.65
2023-04-25T03:52:58.638Z,8.49
2023-04-25T03:55:29.788Z,8.54
2023-04-25T03:58:01.155Z,8.50
2023-04-25T04:00:31.755Z,8.54
2023-04-25T04:03:02.587Z,8.58
2023-04-25T04:05:33.690Z,8.42
2023-04-25T04:08:04.826Z,8.46
2023-04-25T04:10:35.710Z,8.46
2023-04-25T04:13:08.895Z,8.63
2023-04-25T04:15:39.742Z,8.57
2023-04-25T04:18:10.812Z,8.48
2023-04-25T04:20:43.046Z,8.60
2023-04-25T04:23:13.981Z,8.65
2023-04-25T04:25:46.765Z,8.68
2023-04-25T04:28:17.440Z,8.59
2023-04-25T04:30:48.351Z,8.57
2023-04-25T04:33:20.781Z,8.76
2023-04-25T04:35:54.403Z,8.63
2023-04-25T04:38:26.432Z,8.80
2023-04-25T04:40:57.182Z,8.76
2023-04-25T04:43:29.634Z,8.80
2023-04-25T04:46:04.526Z,8.83
2023-04-25T04:48:38.895Z,8.85
2023-04-25T04:51:09.620Z,8.91
2023-04-25T04:53:40.268Z,8.93
2023-04-25T04:56:10.906Z,8.81
2023-04-25T04:58:41.707Z,8.86
2023-04-25T05:01:13.320Z,8.78
2023-04-25T05:03:49.739Z,8.81
2023-04-25T05:06:21.631Z,8.80
2023-04-25T05:08:52.811Z,8.83
2023-04-25T05:11:24.738Z,8.76
2023-04-25T05:13:55.682Z,8.88
2023-04-25T05:16:31.485Z,8.81
2023-04-25T05:19:04.586Z,8.77
2023-04-25T05:21:35.538Z,8.80
2023-04-25T05:24:07.141Z,8.93
2023-04-25T05:26:39.222Z,9.04
2023-04-25T05:29:10.985Z,9.21
2023-04-25T05:31:41.552Z,9.05
2023-04-25T05:34:12.645Z,8.78
2023-04-25T05:36:43.155Z,8.87
2023-04-25T05:39:14.511Z,8.93
2023-04-25T05:41:45.713Z,8.72
2023-04-25T05:44:17.020Z,8.77
2023-04-25T05:46:48.683Z,8.92
2023-04-25T05:49:19.771Z,9.00
2023-04-25T05:51:50.704Z,8.98
2023-04-25T05:54:22.451Z,8.80
2023-04-25T05:56:53.504Z,8.91
2023-04-25T05:59:24.017Z,9.02
2023-04-25T06:01:55.057Z,8.92
2023-04-25T06:04:26.000Z,9.00
2023-04-25T06:06:58.303Z,8.90
2023-04-25T06:09:28.865Z,8.96
2023-04-25T06:12:01.112Z,8.94
2023-04-25T06:14:31.652Z,9.13
2023-04-25T06:17:03.901Z,9.30
2023-04-25T06:19:37.890Z,9.31
2023-04-25T06:22:09.667Z,9.31
2023-04-25T06:24:47.482Z,9.24
2023-04-25T06:27:18.089Z,9.17
2023-04-25T06:29:48.627Z,8.90
2023-04-25T06:32:19.656Z,9.08
2023-04-25T06:34:52.649Z,9.07
2023-04-25T06:37:23.163Z,9.24
2023-04-25T06:39:53.735Z,9.12
2023-04-25T06:42:24.305Z,9.00
2023-04-25T06:44:54.857Z,9.14
2023-04-25T06:47:25.502Z,9.04
2023-04-25T06:49:56.037Z,8.90
2023-04-25T06:52:26.795Z,8.94
2023-04-25T06:54:57.344Z,9.20
2023-04-25T06:57:27.812Z,8.98
2023-04-25T06:59:59.681Z,8.89
2023-04-25T07:02:31.893Z,8.78
2023-04-25T07:05:04.263Z,9.00
2023-04-25T07:07:34.924Z,8.78
2023-04-25T07:10:06.617Z,8.64
2023-04-25T07:12:37.196Z,8.52
2023-04-25T07:15:10.507Z,8.67
2023-04-25T07:17:41.349Z,8.71
2023-04-25T07:20:12.747Z,8.58
2023-04-25T07:22:43.997Z,8.78
2023-04-25T07:25:15.225Z,8.92
2023-04-25T07:27:45.943Z,8.78
2023-04-25T07:30:16.969Z,8.95
2023-04-25T07:32:48.102Z,9.08
2023-04-25T07:35:20.457Z,9.04
2023-04-25T07:37:54.027Z,8.93
2023-04-25T07:40:26.106Z,9.17
2023-04-25T07:42:56.646Z,9.03
2023-04-25T07:45:28.368Z,9.12
2023-04-25T07:47:59.210Z,9.20
2023-04-25T07:50:29.954Z,9.20
2023-04-25T07:53:00.754Z,9.02
2023-04-25T07:55:31.450Z,8.90
2023-04-25T07:58:02.043Z,8.98
2023-04-25T08:00:34.239Z,9.20
2023-04-25T08:03:05.247Z,9.28
2023-04-25T08:05:37.068Z,9.36
2023-04-25T08:08:07.832Z,9.64
2023-04-25T08:10:38.306Z,9.32
2023-04-25T08:13:08.919Z,9.14
2023-04-25T08:15:41.689Z,9.37
2023-04-25T08:18:15.047Z,9.16
2023-04-25T08:20:46.111Z,9.36
2023-04-25T08:23:16.624Z,10.02
2023-04-25T08:25:47.452Z,10.46
2023-04-25T08:28:18.025Z,10.13
2023-04-25T08:30:48.525Z,10.22
2023-04-25T08:33:19.124Z,10.15
2023-04-25T08:35:50.055Z,10.00
2023-04-25T08:38:20.924Z,10.19
2023-04-25T08:40:56.746Z,10.39
2023-04-25T08:43:27.522Z,10.64
2023-04-25T08:46:02.964Z,10.54
2023-04-25T08:48:36.005Z,10.83
2023-04-25T08:53:44.120Z,10.32
2023-04-25T08:56:17.750Z,10.10
2023-04-25T08:58:51.718Z,10.52
2023-04-25T09:01:23.584Z,10.28
2023-04-25T09:03:55.730Z,10.50
2023-04-25T09:06:28.776Z,10.84
2023-04-25T09:09:07.132Z,10.58
2023-04-25T09:11:40.217Z,10.60
2023-04-25T09:14:22.966Z,10.90
2023-04-25T09:17:02.259Z,11.09
2023-04-25T09:19:40.932Z,11.00
2023-04-25T09:22:11.138Z,11.34
2023-04-25T09:24:45.324Z,10.96
2023-04-25T09:27:21.729Z,10.67
2023-04-25T09:29:55.346Z,10.64
2023-04-25T09:32:27.039Z,11.16
2023-04-25T09:34:59.476Z,11.75
2023-04-25T09:37:31.958Z,11.75
2023-04-25T09:40:11.087Z,11.56
2023-04-25T09:42:43.398Z,11.88
2023-04-25T09:45:16.070Z,11.32
2023-04-25T09:47:48.708Z,11.56
2023-04-25T09:50:21.386Z,11.88
2023-04-25T09:53:00.617Z,11.43
2023-04-25T09:55:32.818Z,11.12
2023-04-25T09:58:08.047Z,11.38
2023-04-25T10:00:40.390Z,11.58
2023-04-25T10:03:12.013Z,11.67
2023-04-25T10:05:44.751Z,11.76
2023-04-25T10:08:17.375Z,11.77
2023-04-25T10:10:51.767Z,11.24
2023-04-25T10:13:22.406Z,11.27
2023-04-25T10:15:55.882Z,12.05
2023-04-25T10:18:28.802Z,12.53
2023-04-25T10:21:02.299Z,12.14
2023-04-25T10:23:35.434Z,11.68
2023-04-25T10:26:06.560Z,12.00
2023-04-25T10:28:42.981Z,11.61
2023-04-25T10:31:15.098Z,11.14
2023-04-25T10:33:45.741Z,11.13
2023-04-25T10:36:18.829Z,11.44
2023-04-25T10:38:55.274Z,11.92
2023-04-25T10:41:26.074Z,11.69
2023-04-25T10:44:03.191Z,11.24
2023-04-25T10:46:37.022Z,11.06
2023-04-25T10:49:12.071Z,10.86
2023-04-25T10:54:20.877Z,11.74
2023-04-25T10:56:52.452Z,11.80
2023-04-25T10:59:26.052Z,11.17
2023-04-25T11:01:57.674Z,11.09
2023-04-25T11:04:35.629Z,11.57
2023-04-25T11:07:12.234Z,11.38
2023-04-25T11:09:43.393Z,11.29
2023-04-25T11:12:18.083Z,10.74
2023-04-25T11:14:50.109Z,10.11
2023-04-25T11:17:21.171Z,9.60
2023-04-25T11:19:52.017Z,9.61
2023-04-25T11:22:24.242Z,9.82
2023-04-25T11:24:56.189Z,9.78
2023-04-25T11:27:28.770Z,10.06
2023-04-25T11:29:59.292Z,10.55
2023-04-25T11:32:31.494Z,10.90
2023-04-25T11:35:02.300Z,10.61
2023-04-25T11:37:35.263Z,10.73
2023-04-25T11:40:08.965Z,10.72
2023-04-25T11:42:40.884Z,11.06
2023-04-25T11:45:13.089Z,11.17
2023-04-25T11:47:43.739Z,11.17
2023-04-25T11:50:15.212Z,11.18
2023-04-25T11:52:47.873Z,11.65
2023-04-25T11:55:21.260Z,11.50
2023-04-25T11:57:53.065Z,11.63
2023-04-25T12:00:24.401Z,12.06
2023-04-25T12:02:59.390Z,12.19
2023-04-25T12:05:35.609Z,12.31
2023-04-25T12:08:13.663Z,12.15
2023-04-25T12:10:48.823Z,11.70
2023-04-25T12:13:28.913Z,11.26
2023-04-25T12:15:59.709Z,10.92
2023-04-25T12:18:30.330Z,10.81
2023-04-25T12:21:01.167Z,11.18
2023-04-25T12:23:32.538Z,10.68
2023-04-25T12:26:03.739Z,11.16
2023-04-25T12:28:35.386Z,11.70
2023-04-25T12:31:09.390Z,11.41
2023-04-25T12:33:41.107Z,11.87
2023-04-25T12:36:13.346Z,11.76
2023-04-25T12:38:44.473Z,11.16
2023-04-25T12:41:15.796Z,11.08
2023-04-25T12:43:46.334Z,11.44
2023-04-25T12:46:17.057Z,11.60
2023-04-25T12:48:47.525Z,12.01
2023-04-25T12:51:18.639Z,11.72
2023-04-25T12:53:49.202Z,11.56
2023-04-25T12:56:21.473Z,11.78
2023-04-25T12:58:52.403Z,11.14
2023-04-25T13:01:25.029Z,11.36
2023-04-25T13:03:55.809Z,11.50
2023-04-25T13:06:27.291Z,11.02
2023-04-25T13:08:57.953Z,11.21
2023-04-25T13:14:00.929Z,11.16
2023-04-25T13:16:31.557Z,11.59
2023-04-25T13:19:02.102Z,12.04
2023-04-25T13:21:34.489Z,11.94
2023-04-25T13:24:08.209Z,11.73
2023-04-25T13:26:38.719Z,11.90
2023-04-25T13:29:09.588Z,11.98
2023-04-25T13:31:40.272Z,11.97
2023-04-25T13:34:12.788Z,11.60
2023-04-25T13:36:43.261Z,11.47
2023-04-25T13:39:14.415Z,10.93
2023-04-25T13:41:46.577Z,10.98
2023-04-25T13:44:17.480Z,10.76
2023-04-25T13:46:48.250Z,10.76
2023-04-25T13:49:19.229Z,11.28
2023-04-25T13:51:51.336Z,11.29
2023-04-25T13:54:21.706Z,10.92
2023-04-25T13:56:53.381Z,10.87
2023-04-25T13:59:24.350Z,10.85
2023-04-25T14:01:57.377Z,11.04
2023-04-25T14:04:28.700Z,10.84
2023-04-25T14:06:59.823Z,10.82
2023-04-25T14:09:30.462Z,10.90
2023-04-25T14:12:01.621Z,10.83
2023-04-25T14:14:32.129Z,10.95
2023-04-25T14:17:02.682Z,11.00
2023-04-25T14:19:33.166Z,11.06
2023-04-25T14:22:03.687Z,10.44
2023-04-25T14:24:35.623Z,10.32
2023-04-25T14:27:06.273Z,10.32
2023-04-25T14:29:37.190Z,10.64
2023-04-25T14:32:07.677Z,10.75
2023-04-25T14:34:38.193Z,10.89
2023-04-25T14:37:08.760Z,11.24
2023-04-25T14:39:39.257Z,11.62
2023-04-25T14:42:10.083Z,11.68
2023-04-25T14:44:40.704Z,11.54
2023-04-25T14:47:11.823Z,11.56
2023-04-25T14:49:42.480Z,11.37
2023-04-25T14:52:13.126Z,11.04
2023-04-25T14:54:43.550Z,10.55
2023-04-25T14:57:14.140Z,10.27
2023-04-25T14:59:44.936Z,9.84
2023-04-25T15:02:15.624Z,9.62
2023-04-25T15:04:46.720Z,9.50
2023-04-25T15:07:18.585Z,9.47
2023-04-25T15:09:49.975Z,9.46
2023-04-25T15:12:21.006Z,9.60
2023-04-25T15:14:51.724Z,9.88
2023-04-25T15:17:22.267Z,9.95
2023-04-25T15:19:52.829Z,10.04
2023-04-25T15:22:23.389Z,10.34
2023-04-25T15:24:54.288Z,10.29
2023-04-25T15:27:24.851Z,10.41
2023-04-25T15:29:56.303Z,10.86
2023-04-25T15:32:27.322Z,10.95
2023-04-25T15:34:57.980Z,10.94
2023-04-25T15:37:28.468Z,10.89
2023-04-25T15:40:18.401Z,10.86
2023-04-25T15:42:56.531Z,10.80
2023-04-25T15:45:27.982Z,10.38
2023-04-25T15:47:58.685Z,10.06
2023-04-25T15:50:30.776Z,9.98
2023-04-25T15:53:02.116Z,10.14
2023-04-25T15:58:23.260Z,10.36
2023-04-25T16:00:56.598Z,10.51
2023-04-25T16:03:28.308Z,10.42
2023-04-25T16:06:36.869Z,10.49
2023-04-25T16:09:07.579Z,10.26
2023-04-25T16:11:40.187Z,10.11
2023-04-25T16:14:10.863Z,10.09
2023-04-25T16:16:44.945Z,10.00
2023-04-25T16:19:18.506Z,10.04
2023-04-25T16:21:50.657Z,9.88
2023-04-25T16:24:21.590Z,9.88
2023-04-25T16:26:53.418Z,9.68
2023-04-25T16:29:24.032Z,9.74
2023-04-25T16:31:56.089Z,9.74
2023-04-25T16:34:28.262Z,9.92
2023-04-25T16:37:01.373Z,9.95
2023-04-25T16:39:31.804Z,9.74
2023-04-25T16:42:04.104Z,9.74
2023-04-25T16:44:35.339Z,9.61
2023-04-25T16:47:06.242Z,9.58
2023-04-25T16:49:38.678Z,9.82
2023-04-25T16:52:10.786Z,9.95
2023-04-25T16:54:43.860Z,10.14
2023-04-25T16:57:14.644Z,9.86
2023-04-25T16:59:45.932Z,9.95
2023-04-25T17:02:17.124Z,9.82
2023-04-25T17:04:54.654Z,9.81
2023-04-25T17:07:23.208Z,9.72
2023-04-25T17:09:55.558Z,9.61
2023-04-25T17:12:26.394Z,9.74
2023-04-25T17:14:57.695Z,10.30
2023-04-25T17:17:28.470Z,10.94
2023-04-25T17:19:59.415Z,11.90
2023-04-25T17:22:33.691Z,11.46
2023-04-25T17:25:07.072Z,10.87
2023-04-25T17:27:39.961Z,10.40
2023-04-25T17:30:12.634Z,9.56
2023-04-25T17:32:45.324Z,9.43
2023-04-25T17:35:17.529Z,9.08
2023-04-25T17:37:48.742Z,9.21
2023-04-25T17:40:20.801Z,8.96
2023-04-25T17:42:52.133Z,8.98
2023-04-25T17:45:22.728Z,8.90
2023-04-25T17:47:54.598Z,8.80
2023-04-25T17:50:26.671Z,8.64
2023-04-25T17:52:57.330Z,8.62
2023-04-25T17:55:29.237Z,8.74
2023-04-25T17:58:00.096Z,8.62
2023-04-25T18:00:33.599Z,8.57
2023-04-25T18:03:04.864Z,8.52
2023-04-25T18:05:37.816Z,8.72
2023-04-25T18:08:08.571Z,8.54
2023-04-25T18:10:39.360Z,8.54
2023-04-25T18:13:09.863Z,8.60
2023-04-25T18:15:50.398Z,8.52
2023-04-25T18:18:22.728Z,8.60
2023-04-25T18:20:53.796Z,8.48
2023-04-25T18:23:26.049Z,8.56
2023-04-25T18:25:58.096Z,8.55
2023-04-25T18:28:29.257Z,8.56
2023-04-25T18:31:01.251Z,8.38
2023-04-25T18:33:32.991Z,8.30
2023-04-25T18:36:03.471Z,8.10
2023-04-25T18:38:35.877Z,8.10
2023-04-25T18:41:33.690Z,7.98
2023-04-25T18:43:39.229Z,8.00
2023-04-25T18:46:09.854Z,7.76
2023-04-25T18:48:42.850Z,7.80
2023-04-25T18:51:13.561Z,7.88
2023-04-25T18:53:44.334Z,7.91
2023-04-25T18:56:15.310Z,7.98
2023-04-25T18:58:46.097Z,7.96
2023-04-25T19:01:17.363Z,8.03
2023-04-25T19:03:53.584Z,8.02
2023-04-25T19:06:27.242Z,7.98
2023-04-25T19:08:59.174Z,7.94
2023-04-25T19:11:30.069Z,7.93
2023-04-25T19:14:01.203Z,7.94
2023-04-25T19:16:33.461Z,7.84
2023-04-25T19:19:06.600Z,7.83
2023-04-25T19:21:37.686Z,7.82
2023-04-25T19:24:09.663Z,7.68
2023-04-25T19:26:41.977Z,7.72
2023-04-25T19:29:14.703Z,7.63
2023-04-25T19:31:47.991Z,7.55
2023-04-25T19:34:20.212Z,7.52
2023-04-25T19:36:52.484Z,7.48
2023-04-25T19:39:24.353Z,7.48
2023-04-25T19:41:56.684Z,7.39
2023-04-25T19:44:28.150Z,7.31
2023-04-25T19:46:59.791Z,7.34
2023-04-25T19:49:30.853Z,7.29
2023-04-25T19:52:01.426Z,7.18
2023-04-25T19:54:32.475Z,7.22
2023-04-25T19:57:03.669Z,7.20
2023-04-25T19:59:34.211Z,7.16
2023-04-25T20:02:05.218Z,7.26
2023-04-25T20:04:36.178Z,7.08
2023-04-25T20:07:07.488Z,7.12
2023-04-25T20:09:39.511Z,7.11
2023-04-25T20:12:11.882Z,7.00
2023-04-25T20:14:43.022Z,6.94
2023-04-25T20:17:15.074Z,6.96
2023-04-25T20:19:46.178Z,6.94
2023-04-25T20:22:17.430Z,6.80
2023-04-25T20:24:48.002Z,6.93
2023-04-25T20:27:18.602Z,6.86
2023-04-25T20:29:50.215Z,6.92
2023-04-25T20:32:20.899Z,6.84
2023-04-25T20:34:51.623Z,6.96
2023-04-25T20:37:22.096Z,6.75
2023-04-25T20:39:52.764Z,6.70
2023-04-25T20:42:23.285Z,6.82
2023-04-25T20:44:56.224Z,6.77
2023-04-25T20:47:27.523Z,6.81
2023-04-25T20:49:59.944Z,6.80
2023-04-25T20:52:32.869Z,6.66
2023-04-25T20:55:03.940Z,6.78
2023-04-25T20:57:34.608Z,6.68
2023-04-25T21:00:09.906Z,6.59
2023-04-25T21:02:40.601Z,6.59
2023-04-25T21:05:11.832Z,6.60
2023-04-25T21:07:42.915Z,6.64
2023-04-25T21:10:15.027Z,6.62
2023-04-25T21:12:47.938Z,6.52
2023-04-25T21:15:22.848Z,6.50
2023-04-25T21:17:53.433Z,6.54
2023-04-25T21:20:24.678Z,6.31
2023-04-25T21:22:57.004Z,6.27
2023-04-25T21:25:32.280Z,6.21
2023-04-25T21:28:02.916Z,6.18
2023-04-25T21:30:33.612Z,6.12
2023-04-25T21:33:04.881Z,6.13
2023-04-25T21:35:35.942Z,6.16
2023-04-25T21:38:08.692Z,6.17
2023-04-25T21:40:40.898Z,5.99
2023-04-25T21:43:11.521Z,6.06
2023-04-25T21:45:59.537Z,6.00
2023-04-25T21:48:15.347Z,5.96
2023-04-25T21:50:45.886Z,5.95
2023-04-25T21:53:16.463Z,6.00
2023-04-25T21:55:47.124Z,5.90
2023-04-25T21:58:17.641Z,5.91
2023-04-25T22:00:49.078Z,5.88
2023-04-25T22:03:20.289Z,5.85
2023-04-25T22:05:51.067Z,5.82
2023-04-25T22:08:21.922Z,5.80
2023-04-25T22:10:55.103Z,5.86
2023-04-25T22:13:26.027Z,5.80
2023-04-25T22:15:59.395Z,5.99
2023-04-25T22:18:31.519Z,5.79
2023-04-25T22:21:03.626Z,5.92
2023-04-25T22:23:34.993Z,5.69
2023-04-25T22:26:05.999Z,5.74
2023-04-25T22:28:36.564Z,5.56
2023-04-25T22:31:07.517Z,5.62
2023-04-25T22:33:38.323Z,5.72
2023-04-25T22:36:09.473Z,5.63
2023-04-25T22:38:41.317Z,5.64
2023-04-25T22:41:11.902Z,5.51
2023-04-25T22:43:42.563Z,5.56
2023-04-25T22:46:20.650Z,5.53
2023-04-25T22:48:51.446Z,5.50
2023-04-25T22:51:22.256Z,5.62
2023-04-25T22:53:53.371Z,5.49
2023-04-25T22:56:24.695Z,5.48
2023-04-25T22:58:55.179Z,5.32
2023-04-25T23:01:25.909Z,5.23
2023-04-25T23:03:57.761Z,5.24
2023-04-25T23:06:28.778Z,5.46
2023-04-25T23:09:00.538Z,5.30
2023-04-25T23:11:32.091Z,5.46
2023-04-25T23:14:03.769Z,5.32
2023-04-25T23:16:35.425Z,5.26
2023-04-25T23:19:05.956Z,5.68
2023-04-25T23:21:36.429Z,5.54
2023-04-25T23:24:07.356Z,5.48
2023-04-25T23:26:38.687Z,5.35
2023-04-25T23:29:10.642Z,5.26
2023-04-25T23:31:41.538Z,5.18
2023-04-25T23:34:12.753Z,5.04
2023-04-25T23:36:43.281Z,4.94
2023-04-25T23:39:15.466Z,4.98
2023-04-25T23:41:46.387Z,5.08
2023-04-25T23:44:18.363Z,5.06
2023-04-25T23:46:49.290Z,4.89
2023-04-25T23:49:20.528Z,4.96
2023-04-25T23:51:52.395Z,4.96
2023-04-25T23:54:23.859Z,4.94
2023-04-25T23:56:54.628Z,4.87
2023-04-25T23:59:25.194Z,4.80
